sensor_id;sensor_type;location;lat;lon;timestamp;pressure;altitude;pressure_sealevel;temperature;humidity
41230;BME280;26964;50.428;19.218;2023-05-24T16:18:47;1021.7;;;14.2;68.6
41230;BME280;26964;50.428;19.218;2023-05-24T16:19:46;1021.7;;;14.1;68.6
41230;BME280;26964;50.428;19.218;2023-05-24T16:20:48;1021.8;;;14.1;68.6
41230;BME280;26964;50.428;19.218;2023-05-24T16:21:46;1021.8;;;14.1;68.6
41230;BME280;26964;50.428;19.218;2023-05-24T16:22:47;1021.8;;;14.1;68.6
41230;BME280;26964;50.428;19.218;2023-05-24T16:23:47;1021.7;;;14.1;68.7
41230;BME280;26964;50.428;19.218;2023-05-24T16:24:46;1021.8;;;14.1;68.7
41230;BME280;26964;50.428;19.218;2023-05-24T16:25:47;1021.7;;;14.1;68.6
41230;BME280;26964;50.428;19.218;2023-05-24T16:26:47;1021.7;;;14.1;68.7
41230;BME280;26964;50.428;19.218;2023-05-24T16:27:47;1021.8;;;14.1;68.7
41230;BME280;26964;50.428;19.218;2023-05-24T16:28:48;1021.8;;;14.1;68.7
41230;BME280;26964;50.428;19.218;2023-05-24T16:29:46;1021.8;;;14.1;68.7
41230;BME280;26964;50.428;19.218;2023-05-24T16:30:46;1021.9;;;14.1;68.7
41230;BME280;26964;50.428;19.218;2023-05-24T16:31:47;1021.9;;;14.1;68.7
41230;BME280;26964;50.428;19.218;2023-05-24T16:32:47;1021.9;;;14.0;68.7
41230;BME280;26964;50.428;19.218;2023-05-24T16:33:47;1021.8;;;14.0;68.7
41230;BME280;26964;50.428;19.218;2023-05-24T16:34:47;1021.8;;;14.0;68.7
41230;BME280;26964;50.428;19.218;2023-05-24T16:35:47;1021.9;;;14.0;68.7
41230;BME280;26964;50.428;19.218;2023-05-24T16:36:47;1021.9;;;14.0;68.7
41230;BME280;26964;50.428;19.218;2023-05-24T16:37:49;1022.0;;;14.0;68.7
41230;BME280;26964;50.428;19.218;2023-05-24T16:38:47;1022.0;;;13.9;68.7
41230;BME280;26964;50.428;19.218;2023-05-24T16:39:47;1022.0;;;13.9;68.7
41230;BME280;26964;50.428;19.218;2023-05-24T16:40:46;1021.9;;;13.9;68.7
41230;BME280;26964;50.428;19.218;2023-05-24T16:41:46;1021.9;;;13.9;68.6
41230;BME280;26964;50.428;19.218;2023-05-24T16:42:47;1022.1;;;13.8;68.6
41230;BME280;26964;50.428;19.218;2023-05-24T16:43:47;1022.0;;;13.8;68.6
41230;BME280;26964;50.428;19.218;2023-05-24T16:44:46;1021.9;;;13.8;68.7
41230;BME280;26964;50.428;19.218;2023-05-24T16:45:47;1022.0;;;13.7;68.8
41230;BME280;26964;50.428;19.218;2023-05-24T16:46:46;1022.0;;;13.7;68.8
41230;BME280;26964;50.428;19.218;2023-05-24T16:47:47;1021.9;;;13.7;68.8
41230;BME280;26964;50.428;19.218;2023-05-24T16:48:47;1022.0;;;13.7;68.8
41230;BME280;26964;50.428;19.218;2023-05-24T16:49:47;1022.0;;;13.7;68.9
41230;BME280;26964;50.428;19.218;2023-05-24T16:50:47;1022.1;;;13.7;69.0
41230;BME280;26964;50.428;19.218;2023-05-24T16:51:47;1022.0;;;13.6;68.9
41230;BME280;26964;50.428;19.218;2023-05-24T16:52:46;1022.1;;;13.6;68.9
41230;BME280;26964;50.428;19.218;2023-05-24T16:53:47;1022.1;;;13.6;68.9
41230;BME280;26964;50.428;19.218;2023-05-24T16:54:47;1022.1;;;13.6;69.0
41230;BME280;26964;50.428;19.218;2023-05-24T16:55:47;1022.1;;;13.6;69.1
41230;BME280;26964;50.428;19.218;2023-05-24T16:56:47;1022.2;;;13.6;69.0
41230;BME280;26964;50.428;19.218;2023-05-24T16:57:47;1022.2;;;13.6;69.0
41230;BME280;26964;50.428;19.218;2023-05-24T16:58:47;1022.1;;;13.5;69.0
41230;BME280;26964;50.428;19.218;2023-05-24T16:59:47;1022.1;;;13.5;69.1
41230;BME280;26964;50.428;19.218;2023-05-24T17:00:46;1022.2;;;13.5;69.0
41230;BME280;26964;50.428;19.218;2023-05-24T17:01:46;1022.1;;;13.5;69.0
41230;BME280;26964;50.428;19.218;2023-05-24T17:02:47;1022.1;;;13.4;69.1
41230;BME280;26964;50.428;19.218;2023-05-24T17:03:46;1022.2;;;13.4;69.1
41230;BME280;26964;50.428;19.218;2023-05-24T17:04:47;1022.1;;;13.4;69.1
41230;BME280;26964;50.428;19.218;2023-05-24T17:05:47;1022.1;;;13.4;69.2
41230;BME280;26964;50.428;19.218;2023-05-24T17:06:47;1022.2;;;13.4;69.1
41230;BME280;26964;50.428;19.218;2023-05-24T17:07:47;1022.2;;;13.4;69.1
41230;BME280;26964;50.428;19.218;2023-05-24T17:08:47;1022.2;;;13.4;69.2
41230;BME280;26964;50.428;19.218;2023-05-24T17:09:48;1022.2;;;13.4;69.2
41230;BME280;26964;50.428;19.218;2023-05-24T17:10:47;1022.3;;;13.4;69.2
41230;BME280;26964;50.428;19.218;2023-05-24T17:11:47;1022.2;;;13.4;69.2
41230;BME280;26964;50.428;19.218;2023-05-24T17:12:47;1022.2;;;13.4;69.2
41230;BME280;26964;50.428;19.218;2023-05-24T17:13:47;1022.2;;;13.4;69.2
41230;BME280;26964;50.428;19.218;2023-05-24T17:14:46;1022.2;;;13.4;69.2
41230;BME280;26964;50.428;19.218;2023-05-24T17:15:47;1022.3;;;13.4;69.2
41230;BME280;26964;50.428;19.218;2023-05-24T17:16:46;1022.3;;;13.4;69.2
41230;BME280;26964;50.428;19.218;2023-05-24T17:17:47;1022.3;;;13.4;69.4
41230;BME280;26964;50.428;19.218;2023-05-24T17:18:47;1022.4;;;13.4;69.3
41230;BME280;26964;50.428;19.218;2023-05-24T17:19:47;1022.4;;;13.4;69.3
41230;BME280;26964;50.428;19.218;2023-05-24T17:20:47;1022.4;;;13.4;69.3
41230;BME280;26964;50.428;19.218;2023-05-24T17:21:47;1022.5;;;13.4;69.3
41230;BME280;26964;50.428;19.218;2023-05-24T17:22:47;1022.5;;;13.4;69.3
41230;BME280;26964;50.428;19.218;2023-05-24T17:23:47;1022.4;;;13.4;69.3
41230;BME280;26964;50.428;19.218;2023-05-24T17:24:46;1022.4;;;13.4;69.3
41230;BME280;26964;50.428;19.218;2023-05-24T17:25:46;1022.5;;;13.4;69.3
41230;BME280;26964;50.428;19.218;2023-05-24T17:26:46;1022.5;;;13.4;69.4
41230;BME280;26964;50.428;19.218;2023-05-24T17:27:47;1022.5;;;13.4;69.4
41230;BME280;26964;50.428;19.218;2023-05-24T17:28:47;1022.5;;;13.4;69.4
41230;BME280;26964;50.428;19.218;2023-05-24T17:29:47;1022.6;;;13.4;69.4
41230;BME280;26964;50.428;19.218;2023-05-24T17:30:47;1022.5;;;13.4;69.4
41230;BME280;26964;50.428;19.218;2023-05-24T17:31:47;1022.6;;;13.4;69.4
41230;BME280;26964;50.428;19.218;2023-05-24T17:32:46;1022.6;;;13.4;69.4
41230;BME280;26964;50.428;19.218;2023-05-24T17:33:46;1022.5;;;13.4;69.4
41230;BME280;26964;50.428;19.218;2023-05-24T17:34:47;1022.5;;;13.4;69.4
41230;BME280;26964;50.428;19.218;2023-05-24T17:35:47;1022.6;;;13.4;69.5
41230;BME280;26964;50.428;19.218;2023-05-24T17:36:46;1022.6;;;13.4;69.5
41230;BME280;26964;50.428;19.218;2023-05-24T17:37:47;1022.6;;;13.4;69.4
41230;BME280;26964;50.428;19.218;2023-05-24T17:38:47;1022.6;;;13.4;69.4
41230;BME280;26964;50.428;19.218;2023-05-24T17:39:47;1022.6;;;13.4;69.5
41230;BME280;26964;50.428;19.218;2023-05-24T17:40:46;1022.6;;;13.4;69.4
41230;BME280;26964;50.428;19.218;2023-05-24T17:41:46;1022.6;;;13.4;69.4
41230;BME280;26964;50.428;19.218;2023-05-24T17:42:47;1022.6;;;13.4;69.4
41230;BME280;26964;50.428;19.218;2023-05-24T17:43:47;1022.7;;;13.4;69.5
41230;BME280;26964;50.428;19.218;2023-05-24T17:44:47;1022.7;;;13.4;69.5
41230;BME280;26964;50.428;19.218;2023-05-24T17:45:47;1022.6;;;13.3;69.5
41230;BME280;26964;50.428;19.218;2023-05-24T17:46:47;1022.6;;;13.3;69.5
41230;BME280;26964;50.428;19.218;2023-05-24T17:47:46;1022.7;;;13.3;69.5
41230;BME280;26964;50.428;19.218;2023-05-24T17:48:47;1022.6;;;13.3;69.5
41230;BME280;26964;50.428;19.218;2023-05-24T17:49:47;1022.7;;;13.3;69.5
41230;BME280;26964;50.428;19.218;2023-05-24T17:50:46;1022.6;;;13.3;69.5
41230;BME280;26964;50.428;19.218;2023-05-24T17:51:47;1022.6;;;13.3;69.6
41230;BME280;26964;50.428;19.218;2023-05-24T17:52:46;1022.6;;;13.3;69.6
41230;BME280;26964;50.428;19.218;2023-05-24T17:53:47;1022.6;;;13.3;69.6
41230;BME280;26964;50.428;19.218;2023-05-24T17:54:47;1022.5;;;13.3;69.7
41230;BME280;26964;50.428;19.218;2023-05-24T17:55:47;1022.6;;;13.3;69.6
41230;BME280;26964;50.428;19.218;2023-05-24T17:56:47;1022.6;;;13.2;69.6
41230;BME280;26964;50.428;19.218;2023-05-24T17:57:48;1022.6;;;13.2;69.6
41230;BME280;26964;50.428;19.218;2023-05-24T17:58:46;1022.6;;;13.2;69.6
41230;BME280;26964;50.428;19.218;2023-05-24T17:59:46;1022.6;;;13.2;69.7
41230;BME280;26964;50.428;19.218;2023-05-24T18:00:47;1022.6;;;13.2;69.7
41230;BME280;26964;50.428;19.218;2023-05-24T18:01:46;1022.7;;;13.3;69.7
41230;BME280;26964;50.428;19.218;2023-05-24T18:02:47;1022.6;;;13.3;69.7
41230;BME280;26964;50.428;19.218;2023-05-24T18:03:47;1022.7;;;13.3;69.7
41230;BME280;26964;50.428;19.218;2023-05-24T18:04:47;1022.6;;;13.3;69.7
41230;BME280;26964;50.428;19.218;2023-05-24T18:05:47;1022.7;;;13.3;69.7
41230;BME280;26964;50.428;19.218;2023-05-24T18:06:47;1022.7;;;13.2;69.7
41230;BME280;26964;50.428;19.218;2023-05-24T18:07:47;1022.7;;;13.2;69.7
41230;BME280;26964;50.428;19.218;2023-05-24T18:08:47;1022.7;;;13.2;69.7
41230;BME280;26964;50.428;19.218;2023-05-24T18:09:46;1022.7;;;13.3;69.8
41230;BME280;26964;50.428;19.218;2023-05-24T18:10:47;1022.7;;;13.3;69.8
41230;BME280;26964;50.428;19.218;2023-05-24T18:11:47;1022.7;;;13.3;69.8
41230;BME280;26964;50.428;19.218;2023-05-24T18:12:47;1022.7;;;13.2;69.8
41230;BME280;26964;50.428;19.218;2023-05-24T18:13:47;1022.8;;;13.3;69.8
41230;BME280;26964;50.428;19.218;2023-05-24T18:14:47;1022.8;;;13.3;69.8
41230;BME280;26964;50.428;19.218;2023-05-24T18:15:46;1022.8;;;13.3;69.9
41230;BME280;26964;50.428;19.218;2023-05-24T18:16:47;1022.8;;;13.3;69.9
41230;BME280;26964;50.428;19.218;2023-05-24T18:17:47;1022.8;;;13.3;69.8
41230;BME280;26964;50.428;19.218;2023-05-24T18:18:47;1022.9;;;13.3;69.8
41230;BME280;26964;50.428;19.218;2023-05-24T18:19:47;1022.9;;;13.3;69.8
41230;BME280;26964;50.428;19.218;2023-05-24T18:20:46;1022.9;;;13.3;69.8
41230;BME280;26964;50.428;19.218;2023-05-24T18:21:47;1023.0;;;13.3;69.8
41230;BME280;26964;50.428;19.218;2023-05-24T18:22:47;1022.9;;;13.3;69.9
41230;BME280;26964;50.428;19.218;2023-05-24T18:23:47;1023.0;;;13.3;69.8
41230;BME280;26964;50.428;19.218;2023-05-24T18:24:47;1022.9;;;13.3;69.8
41230;BME280;26964;50.428;19.218;2023-05-24T18:25:47;1022.9;;;13.3;69.8
41230;BME280;26964;50.428;19.218;2023-05-24T18:26:47;1022.9;;;13.3;69.8
41230;BME280;26964;50.428;19.218;2023-05-24T18:27:47;1022.9;;;13.2;69.8
41230;BME280;26964;50.428;19.218;2023-05-24T18:28:47;1022.9;;;13.2;69.8
41230;BME280;26964;50.428;19.218;2023-05-24T18:29:47;1023.0;;;13.2;69.8
41230;BME280;26964;50.428;19.218;2023-05-24T18:30:49;1023.0;;;13.2;69.8
41230;BME280;26964;50.428;19.218;2023-05-24T18:31:47;1023.0;;;13.2;69.8
41230;BME280;26964;50.428;19.218;2023-05-24T18:32:47;1023.0;;;13.2;69.8
41230;BME280;26964;50.428;19.218;2023-05-24T18:33:47;1023.1;;;13.2;69.9
41230;BME280;26964;50.428;19.218;2023-05-24T18:34:47;1023.0;;;13.2;69.9
41230;BME280;26964;50.428;19.218;2023-05-24T18:35:47;1023.1;;;13.2;69.9
41230;BME280;26964;50.428;19.218;2023-05-24T18:36:47;1023.1;;;13.2;69.9
41230;BME280;26964;50.428;19.218;2023-05-24T18:37:47;1023.1;;;13.2;70.0
41230;BME280;26964;50.428;19.218;2023-05-24T18:38:47;1023.0;;;13.2;70.0
41230;BME280;26964;50.428;19.218;2023-05-24T18:39:47;1023.1;;;13.2;70.0
41230;BME280;26964;50.428;19.218;2023-05-24T18:40:47;1023.1;;;13.3;70.0
41230;BME280;26964;50.428;19.218;2023-05-24T18:41:47;1023.2;;;13.3;70.0
41230;BME280;26964;50.428;19.218;2023-05-24T18:42:46;1023.2;;;13.3;70.0
41230;BME280;26964;50.428;19.218;2023-05-24T18:44:03;1023.2;;;13.3;70.0
41230;BME280;26964;50.428;19.218;2023-05-24T18:44:47;1023.1;;;13.3;70.0
41230;BME280;26964;50.428;19.218;2023-05-24T18:45:47;1023.2;;;13.3;70.0
41230;BME280;26964;50.428;19.218;2023-05-24T18:46:46;1023.2;;;13.3;70.0
41230;BME280;26964;50.428;19.218;2023-05-24T18:47:47;1023.2;;;13.3;70.0
41230;BME280;26964;50.428;19.218;2023-05-24T18:48:46;1023.2;;;13.3;70.1
41230;BME280;26964;50.428;19.218;2023-05-24T18:49:46;1023.3;;;13.3;70.0
41230;BME280;26964;50.428;19.218;2023-05-24T18:50:47;1023.2;;;13.3;70.1
41230;BME280;26964;50.428;19.218;2023-05-24T18:51:46;1023.3;;;13.3;70.1
41230;BME280;26964;50.428;19.218;2023-05-24T18:52:46;1023.2;;;13.3;70.1
41230;BME280;26964;50.428;19.218;2023-05-24T18:53:47;1023.3;;;13.3;70.1
41230;BME280;26964;50.428;19.218;2023-05-24T18:54:46;1023.2;;;13.3;70.1
41230;BME280;26964;50.428;19.218;2023-05-24T18:55:47;1023.3;;;13.3;70.1
41230;BME280;26964;50.428;19.218;2023-05-24T18:56:47;1023.3;;;13.3;70.1
41230;BME280;26964;50.428;19.218;2023-05-24T18:57:46;1023.3;;;13.3;70.1
41230;BME280;26964;50.428;19.218;2023-05-24T18:58:46;1023.3;;;13.3;70.1
41230;BME280;26964;50.428;19.218;2023-05-24T18:59:48;1023.4;;;13.3;70.1
41230;BME280;26964;50.428;19.218;2023-05-24T19:00:46;1023.3;;;13.3;70.1
41230;BME280;26964;50.428;19.218;2023-05-24T19:01:47;1023.3;;;13.3;70.1
41230;BME280;26964;50.428;19.218;2023-05-24T19:02:46;1023.3;;;13.3;70.1
41230;BME280;26964;50.428;19.218;2023-05-24T19:03:47;1023.3;;;13.3;70.1
41230;BME280;26964;50.428;19.218;2023-05-24T19:04:46;1023.3;;;13.3;70.1
41230;BME280;26964;50.428;19.218;2023-05-24T19:05:46;1023.3;;;13.3;70.1
41230;BME280;26964;50.428;19.218;2023-05-24T19:06:46;1023.3;;;13.3;70.1
41230;BME280;26964;50.428;19.218;2023-05-24T19:07:55;1023.4;;;13.3;70.1
41230;BME280;26964;50.428;19.218;2023-05-24T19:08:47;1023.3;;;13.3;70.0
41230;BME280;26964;50.428;19.218;2023-05-24T19:09:47;1023.4;;;13.3;70.1
41230;BME280;26964;50.428;19.218;2023-05-24T19:10:47;1023.3;;;13.3;70.0
41230;BME280;26964;50.428;19.218;2023-05-24T19:12:11;1023.4;;;13.3;70.1
41230;BME280;26964;50.428;19.218;2023-05-24T19:12:53;1023.4;;;13.2;70.0
41230;BME280;26964;50.428;19.218;2023-05-24T19:13:47;1023.4;;;13.2;70.1
41230;BME280;26964;50.428;19.218;2023-05-24T19:14:47;1023.4;;;13.2;70.1
41230;BME280;26964;50.428;19.218;2023-05-24T19:15:46;1023.4;;;13.2;70.1
41230;BME280;26964;50.428;19.218;2023-05-24T19:16:46;1023.4;;;13.2;70.1
41230;BME280;26964;50.428;19.218;2023-05-24T19:17:47;1023.4;;;13.2;70.1
41230;BME280;26964;50.428;19.218;2023-05-24T19:18:46;1023.4;;;13.1;70.1
41230;BME280;26964;50.428;19.218;2023-05-24T19:19:47;1023.5;;;13.2;70.2
41230;BME280;26964;50.428;19.218;2023-05-24T19:20:46;1023.5;;;13.2;70.2
41230;BME280;26964;50.428;19.218;2023-05-24T19:21:46;1023.5;;;13.2;70.2
41230;BME280;26964;50.428;19.218;2023-05-24T19:22:46;1023.5;;;13.2;70.3
41230;BME280;26964;50.428;19.218;2023-05-24T19:23:46;1023.4;;;13.2;70.2
41230;BME280;26964;50.428;19.218;2023-05-24T19:24:47;1023.5;;;13.2;70.3
41230;BME280;26964;50.428;19.218;2023-05-24T19:25:47;1023.6;;;13.2;70.3
41230;BME280;26964;50.428;19.218;2023-05-24T19:26:46;1023.5;;;13.2;70.3
41230;BME280;26964;50.428;19.218;2023-05-24T19:27:46;1023.5;;;13.2;70.2
41230;BME280;26964;50.428;19.218;2023-05-24T19:28:47;1023.5;;;13.2;70.2
41230;BME280;26964;50.428;19.218;2023-05-24T19:29:47;1023.5;;;13.2;70.3
41230;BME280;26964;50.428;19.218;2023-05-24T19:30:46;1023.5;;;13.2;70.3
41230;BME280;26964;50.428;19.218;2023-05-24T19:31:46;1023.6;;;13.2;70.3
41230;BME280;26964;50.428;19.218;2023-05-24T19:32:47;1023.6;;;13.2;70.3
41230;BME280;26964;50.428;19.218;2023-05-24T19:33:47;1023.5;;;13.2;70.3
41230;BME280;26964;50.428;19.218;2023-05-24T19:34:47;1023.6;;;13.2;70.3
41230;BME280;26964;50.428;19.218;2023-05-24T19:35:47;1023.6;;;13.2;70.3
41230;BME280;26964;50.428;19.218;2023-05-24T19:36:46;1023.5;;;13.2;70.3
41230;BME280;26964;50.428;19.218;2023-05-24T19:37:46;1023.6;;;13.2;70.3
41230;BME280;26964;50.428;19.218;2023-05-24T19:38:47;1023.5;;;13.2;70.3
41230;BME280;26964;50.428;19.218;2023-05-24T19:39:47;1023.6;;;13.1;70.2
41230;BME280;26964;50.428;19.218;2023-05-24T19:40:47;1023.6;;;13.1;70.3
41230;BME280;26964;50.428;19.218;2023-05-24T19:41:46;1023.6;;;13.1;70.3
41230;BME280;26964;50.428;19.218;2023-05-24T19:42:47;1023.6;;;13.1;70.2
41230;BME280;26964;50.428;19.218;2023-05-24T19:43:47;1023.6;;;13.1;70.3
41230;BME280;26964;50.428;19.218;2023-05-24T19:44:47;1023.6;;;13.0;70.3
41230;BME280;26964;50.428;19.218;2023-05-24T19:45:46;1023.6;;;13.0;70.3
41230;BME280;26964;50.428;19.218;2023-05-24T19:46:47;1023.6;;;13.0;70.3
41230;BME280;26964;50.428;19.218;2023-05-24T19:47:47;1023.6;;;13.0;70.3
41230;BME280;26964;50.428;19.218;2023-05-24T19:48:47;1023.6;;;13.0;70.4
41230;BME280;26964;50.428;19.218;2023-05-24T19:49:46;1023.6;;;13.0;70.4
41230;BME280;26964;50.428;19.218;2023-05-24T19:50:47;1023.7;;;13.0;70.4
41230;BME280;26964;50.428;19.218;2023-05-24T19:51:46;1023.6;;;12.9;70.4
41230;BME280;26964;50.428;19.218;2023-05-24T19:52:47;1023.6;;;13.0;70.5
41230;BME280;26964;50.428;19.218;2023-05-24T19:53:47;1023.6;;;12.9;70.5
41230;BME280;26964;50.428;19.218;2023-05-24T19:54:46;1023.5;;;12.9;70.4
41230;BME280;26964;50.428;19.218;2023-05-24T19:55:47;1023.5;;;12.9;70.4
41230;BME280;26964;50.428;19.218;2023-05-24T19:56:46;1023.5;;;12.9;70.5
41230;BME280;26964;50.428;19.218;2023-05-24T19:57:47;1023.5;;;12.9;70.5
41230;BME280;26964;50.428;19.218;2023-05-24T19:58:47;1023.5;;;12.9;70.5
41230;BME280;26964;50.428;19.218;2023-05-24T19:59:47;1023.5;;;12.9;70.6
41230;BME280;26964;50.428;19.218;2023-05-24T20:00:46;1023.6;;;12.9;70.6
41230;BME280;26964;50.428;19.218;2023-05-24T20:01:47;1023.6;;;12.9;70.6
41230;BME280;26964;50.428;19.218;2023-05-24T20:02:47;1023.5;;;12.9;70.6
41230;BME280;26964;50.428;19.218;2023-05-24T20:03:46;1023.5;;;12.9;70.5
41230;BME280;26964;50.428;19.218;2023-05-24T20:04:46;1023.4;;;12.9;70.5
41230;BME280;26964;50.428;19.218;2023-05-24T20:05:47;1023.5;;;12.9;70.6
41230;BME280;26964;50.428;19.218;2023-05-24T20:06:46;1023.5;;;12.9;70.5
41230;BME280;26964;50.428;19.218;2023-05-24T20:07:46;1023.5;;;12.8;70.6
41230;BME280;26964;50.428;19.218;2023-05-24T20:08:46;1023.5;;;12.8;70.5
41230;BME280;26964;50.428;19.218;2023-05-24T20:09:47;1023.4;;;12.8;70.6
41230;BME280;26964;50.428;19.218;2023-05-24T20:10:46;1023.5;;;12.8;70.5
41230;BME280;26964;50.428;19.218;2023-05-24T20:11:46;1023.5;;;12.8;70.6
41230;BME280;26964;50.428;19.218;2023-05-24T20:12:46;1023.5;;;12.8;70.6
41230;BME280;26964;50.428;19.218;2023-05-24T20:13:47;1023.5;;;12.8;70.6
41230;BME280;26964;50.428;19.218;2023-05-24T20:14:47;1023.4;;;12.8;70.6
41230;BME280;26964;50.428;19.218;2023-05-24T20:15:46;1023.5;;;12.8;70.6
41230;BME280;26964;50.428;19.218;2023-05-24T20:16:47;1023.4;;;12.7;70.6
41230;BME280;26964;50.428;19.218;2023-05-24T20:17:47;1023.5;;;12.7;70.6
41230;BME280;26964;50.428;19.218;2023-05-24T20:18:46;1023.4;;;12.7;70.6
41230;BME280;26964;50.428;19.218;2023-05-24T20:19:47;1023.4;;;12.7;70.6
41230;BME280;26964;50.428;19.218;2023-05-24T20:20:47;1023.4;;;12.7;70.6
41230;BME280;26964;50.428;19.218;2023-05-24T20:21:47;1023.5;;;12.7;70.7
41230;BME280;26964;50.428;19.218;2023-05-24T20:22:46;1023.4;;;12.7;70.6
41230;BME280;26964;50.428;19.218;2023-05-24T20:23:47;1023.5;;;12.7;70.6
41230;BME280;26964;50.428;19.218;2023-05-24T20:24:47;1023.5;;;12.7;70.6
41230;BME280;26964;50.428;19.218;2023-05-24T20:25:47;1023.5;;;12.7;70.7
41230;BME280;26964;50.428;19.218;2023-05-24T20:26:47;1023.5;;;12.7;70.6
41230;BME280;26964;50.428;19.218;2023-05-24T20:27:46;1023.5;;;12.7;70.7
41230;BME280;26964;50.428;19.218;2023-05-24T20:28:47;1023.5;;;12.7;70.7
41230;BME280;26964;50.428;19.218;2023-05-24T20:29:47;1023.5;;;12.7;70.7
41230;BME280;26964;50.428;19.218;2023-05-24T20:30:46;1023.5;;;12.7;70.7
41230;BME280;26964;50.428;19.218;2023-05-24T20:31:47;1023.5;;;12.6;70.7
41230;BME280;26964;50.428;19.218;2023-05-24T20:32:47;1023.4;;;12.6;70.7
41230;BME280;26964;50.428;19.218;2023-05-24T20:33:47;1023.5;;;12.6;70.7
41230;BME280;26964;50.428;19.218;2023-05-24T20:34:47;1023.4;;;12.6;70.7
41230;BME280;26964;50.428;19.218;2023-05-24T20:35:46;1023.5;;;12.6;70.7
41230;BME280;26964;50.428;19.218;2023-05-24T20:36:47;1023.5;;;12.6;70.8
41230;BME280;26964;50.428;19.218;2023-05-24T20:37:47;1023.5;;;12.6;70.8
41230;BME280;26964;50.428;19.218;2023-05-24T20:38:47;1023.5;;;12.6;70.8
41230;BME280;26964;50.428;19.218;2023-05-24T20:39:47;1023.5;;;12.6;70.8
41230;BME280;26964;50.428;19.218;2023-05-24T20:40:47;1023.5;;;12.6;70.8
41230;BME280;26964;50.428;19.218;2023-05-24T20:41:47;1023.5;;;12.6;70.8
41230;BME280;26964;50.428;19.218;2023-05-24T20:42:46;1023.5;;;12.6;70.8
41230;BME280;26964;50.428;19.218;2023-05-24T20:43:47;1023.5;;;12.6;70.8
41230;BME280;26964;50.428;19.218;2023-05-24T20:44:46;1023.5;;;12.6;70.8
41230;BME280;26964;50.428;19.218;2023-05-24T20:45:47;1023.5;;;12.6;70.8
41230;BME280;26964;50.428;19.218;2023-05-24T20:46:47;1023.4;;;12.6;70.8
41230;BME280;26964;50.428;19.218;2023-05-24T20:47:47;1023.4;;;12.6;70.8
41230;BME280;26964;50.428;19.218;2023-05-24T20:48:47;1023.4;;;12.6;70.8
41230;BME280;26964;50.428;19.218;2023-05-24T20:49:47;1023.4;;;12.6;70.8
41230;BME280;26964;50.428;19.218;2023-05-24T20:50:47;1023.4;;;12.6;70.8
41230;BME280;26964;50.428;19.218;2023-05-24T20:51:47;1023.4;;;12.6;70.8
41230;BME280;26964;50.428;19.218;2023-05-24T20:52:47;1023.4;;;12.5;70.8
41230;BME280;26964;50.428;19.218;2023-05-24T20:53:47;1023.4;;;12.5;70.8
41230;BME280;26964;50.428;19.218;2023-05-24T20:54:48;1023.4;;;12.5;70.8
41230;BME280;26964;50.428;19.218;2023-05-24T20:55:46;1023.4;;;12.5;70.9
41230;BME280;26964;50.428;19.218;2023-05-24T20:56:47;1023.3;;;12.5;70.9
41230;BME280;26964;50.428;19.218;2023-05-24T20:57:46;1023.4;;;12.5;70.9
41230;BME280;26964;50.428;19.218;2023-05-24T20:58:47;1023.4;;;12.5;70.9
41230;BME280;26964;50.428;19.218;2023-05-24T20:59:47;1023.5;;;12.5;70.9
41230;BME280;26964;50.428;19.218;2023-05-24T21:00:46;1023.5;;;12.5;70.9
41230;BME280;26964;50.428;19.218;2023-05-24T21:01:47;1023.4;;;12.5;70.9
41230;BME280;26964;50.428;19.218;2023-05-24T21:02:47;1023.4;;;12.5;71.0
41230;BME280;26964;50.428;19.218;2023-05-24T21:03:46;1023.5;;;12.5;71.0
41230;BME280;26964;50.428;19.218;2023-05-24T21:04:47;1023.5;;;12.5;70.9
41230;BME280;26964;50.428;19.218;2023-05-24T21:05:46;1023.5;;;12.5;70.9
41230;BME280;26964;50.428;19.218;2023-05-24T21:06:46;1023.5;;;12.5;70.9
41230;BME280;26964;50.428;19.218;2023-05-24T21:07:47;1023.6;;;12.5;70.9
41230;BME280;26964;50.428;19.218;2023-05-24T21:08:47;1023.6;;;12.5;70.9
41230;BME280;26964;50.428;19.218;2023-05-24T21:09:46;1023.6;;;12.5;70.9
41230;BME280;26964;50.428;19.218;2023-05-24T21:10:47;1023.5;;;12.4;70.9
41230;BME280;26964;50.428;19.218;2023-05-24T21:11:46;1023.6;;;12.4;70.9
41230;BME280;26964;50.428;19.218;2023-05-24T21:12:47;1023.6;;;12.4;71.0
41230;BME280;26964;50.428;19.218;2023-05-24T21:13:47;1023.5;;;12.4;71.0
41230;BME280;26964;50.428;19.218;2023-05-24T21:14:47;1023.6;;;12.5;71.1
41230;BME280;26964;50.428;19.218;2023-05-24T21:15:46;1023.6;;;12.5;71.1
41230;BME280;26964;50.428;19.218;2023-05-24T21:16:47;1023.6;;;12.5;71.1
41230;BME280;26964;50.428;19.218;2023-05-24T21:17:46;1023.6;;;12.5;71.1
41230;BME280;26964;50.428;19.218;2023-05-24T21:18:47;1023.6;;;12.5;71.1
41230;BME280;26964;50.428;19.218;2023-05-24T21:19:47;1023.6;;;12.5;71.1
41230;BME280;26964;50.428;19.218;2023-05-24T21:20:46;1023.7;;;12.5;71.1
41230;BME280;26964;50.428;19.218;2023-05-24T21:21:47;1023.7;;;12.5;71.1
41230;BME280;26964;50.428;19.218;2023-05-24T21:22:47;1023.7;;;12.5;71.0
41230;BME280;26964;50.428;19.218;2023-05-24T21:23:47;1023.7;;;12.5;71.1
41230;BME280;26964;50.428;19.218;2023-05-24T21:24:47;1023.7;;;12.5;71.1
41230;BME280;26964;50.428;19.218;2023-05-24T21:25:47;1023.7;;;12.5;71.1
41230;BME280;26964;50.428;19.218;2023-05-24T21:26:47;1023.8;;;12.5;71.1
41230;BME280;26964;50.428;19.218;2023-05-24T21:27:46;1023.7;;;12.5;71.1
41230;BME280;26964;50.428;19.218;2023-05-24T21:28:46;1023.7;;;12.5;71.1
41230;BME280;26964;50.428;19.218;2023-05-24T21:29:47;1023.7;;;12.5;71.1
41230;BME280;26964;50.428;19.218;2023-05-24T21:30:47;1023.8;;;12.5;71.1
41230;BME280;26964;50.428;19.218;2023-05-24T21:31:46;1023.7;;;12.5;71.1
41230;BME280;26964;50.428;19.218;2023-05-24T21:32:47;1023.8;;;12.5;71.1
41230;BME280;26964;50.428;19.218;2023-05-24T21:33:47;1023.7;;;12.5;71.1
41230;BME280;26964;50.428;19.218;2023-05-24T21:34:47;1023.8;;;12.5;71.1
41230;BME280;26964;50.428;19.218;2023-05-24T21:35:47;1023.7;;;12.5;71.1
41230;BME280;26964;50.428;19.218;2023-05-24T21:36:47;1023.8;;;12.5;71.1
41230;BME280;26964;50.428;19.218;2023-05-24T21:37:47;1023.7;;;12.4;71.2
41230;BME280;26964;50.428;19.218;2023-05-24T21:38:46;1023.8;;;12.4;71.1
41230;BME280;26964;50.428;19.218;2023-05-24T21:39:46;1023.8;;;12.4;71.1
41230;BME280;26964;50.428;19.218;2023-05-24T21:40:47;1023.9;;;12.4;71.2
41230;BME280;26964;50.428;19.218;2023-05-24T21:41:47;1023.9;;;12.4;71.2
41230;BME280;26964;50.428;19.218;2023-05-24T21:42:47;1023.8;;;12.4;71.3
41230;BME280;26964;50.428;19.218;2023-05-24T21:43:47;1023.8;;;12.4;71.3
41230;BME280;26964;50.428;19.218;2023-05-24T21:44:47;1023.8;;;12.4;71.3
41230;BME280;26964;50.428;19.218;2023-05-24T21:45:46;1023.9;;;12.4;71.3
41230;BME280;26964;50.428;19.218;2023-05-24T21:46:47;1023.7;;;12.4;71.3
41230;BME280;26964;50.428;19.218;2023-05-24T21:47:47;1023.9;;;12.4;71.3
41230;BME280;26964;50.428;19.218;2023-05-24T21:48:47;1023.8;;;12.4;71.4